Time;durP1;ratioP1;P1;durP2;ratioP2;P2;SDS_P1;SDS_P2;PMS_P1;PMS_P2;Temp;Humidity;BMP_temperature;BMP_pressure;BME280_temperature;BME280_humidity;BME280_pressure;Samples;Min_cycle;Max_cycle;Signal;HPM_P1;HPM_P2
2023/12/05 00:01:34;;;;;;;;;;;;;;;16.80;42.23;98068.47;10325597;28;888;-70
2023/12/05 00:06:30;;;;;;;;;;;;;;;16.77;42.32;98076.56;10325680;28;1957;-70
2023/12/05 00:11:27;;;;;;;;;;;;;;;16.76;42.34;98064.31;10325806;28;871;-70
2023/12/05 00:16:23;;;;;;;;;;;;;;;16.77;42.37;98063.41;10325294;28;845;-70
2023/12/05 00:21:19;;;;;;;;;;;;;;;16.75;42.12;98052.09;10325162;28;880;-70
2023/12/05 00:26:15;;;;;;;;;;;;;;;16.74;42.38;98063.59;10324726;28;1937;-70
2023/12/05 00:31:11;;;;;;;;;;;;;;;16.77;42.28;98054.66;10324758;28;810;-70
2023/12/05 00:36:07;;;;;;;;;;;;;;;16.79;42.17;98066.78;10324576;28;1507;-70
2023/12/05 00:41:03;;;;;;;;;;;;;;;16.73;42.43;98051.34;10324538;28;821;-71
2023/12/05 00:45:58;;;;;;;;;;;;;;;16.75;42.38;98051.25;10324333;28;1912;-71
2023/12/05 00:50:54;;;;;;;;;;;;;;;16.76;42.08;98050.31;10324363;28;799;-71
2023/12/05 00:55:50;;;;;;;;;;;;;;;16.74;42.04;98055.69;10324275;28;872;-70
2023/12/05 01:00:46;;;;;;;;;;;;;;;16.76;42.12;98050.31;10324156;28;928;-70
2023/12/05 01:05:42;;;;;;;;;;;;;;;16.75;42.38;98053.91;10324057;28;1964;-70
2023/12/05 01:10:38;;;;;;;;;;;;;;;16.71;42.13;98061.13;10323385;28;992;-70
2023/12/05 01:15:34;;;;;;;;;;;;;;;16.71;42.25;98058.50;10328795;28;854;-70
2023/12/05 01:20:29;;;;;;;;;;;;;;;16.73;42.37;98053.97;10330962;28;821;-70
2023/12/05 01:25:25;;;;;;;;;;;;;;;16.72;42.55;98044.41;10331258;28;1897;-70
2023/12/05 01:30:21;;;;;;;;;;;;;;;16.70;42.30;98051.56;10330754;28;929;-70
2023/12/05 01:35:17;;;;;;;;;;;;;;;16.71;42.51;98032.19;10330952;28;1223;-70
2023/12/05 01:40:13;;;;;;;;;;;;;;;16.71;42.43;98033.97;10330228;28;869;-70
2023/12/05 01:45:09;;;;;;;;;;;;;;;16.70;42.48;98038.41;10330632;28;1913;-70
2023/12/05 01:50:08;;;;;;;;;;;;;;;16.71;42.33;98034.81;10329754;28;950;-70
2023/12/05 01:55:04;;;;;;;;;;;;;;;16.70;42.39;98030.50;10329545;28;930;-71
2023/12/05 02:00:00;;;;;;;;;;;;;;;16.67;42.48;98037.78;10329502;28;917;-71
2023/12/05 02:04:55;;;;;;;;;;;;;;;16.68;42.26;98032.41;10329158;28;1890;-71
2023/12/05 02:09:51;;;;;;;;;;;;;;;16.69;42.28;98020.09;10330284;28;919;-70
2023/12/05 02:14:47;;;;;;;;;;;;;;;16.68;42.26;98021.03;10329426;28;914;-70
2023/12/05 02:19:43;;;;;;;;;;;;;;;16.69;42.61;98022.72;10329282;28;897;-71
2023/12/05 02:24:40;;;;;;;;;;;;;;;16.68;42.26;98011.34;10327884;28;1893;-70
2023/12/05 02:29:36;;;;;;;;;;;;;;;16.66;42.31;98015.88;10328547;28;817;-71
2023/12/05 02:34:32;;;;;;;;;;;;;;;16.67;42.31;98012.31;10328247;28;1316;-70
2023/12/05 02:39:27;;;;;;;;;;;;;;;16.66;42.32;98013.22;10327939;28;885;-70
2023/12/05 02:44:23;;;;;;;;;;;;;;;16.65;42.53;98016.81;10328199;28;1981;-70
2023/12/05 02:49:19;;;;;;;;;;;;;;;16.65;42.49;98006.28;10328170;28;782;-70
2023/12/05 02:54:15;;;;;;;;;;;;;;;16.67;42.48;98003.56;10327670;28;1176;-70
2023/12/05 02:59:11;;;;;;;;;;;;;;;16.65;42.32;98001.03;10327679;28;972;-70
2023/12/05 03:04:07;;;;;;;;;;;;;;;16.64;42.35;98000.19;10326835;28;1898;-70
2023/12/05 03:09:03;;;;;;;;;;;;;;;16.65;42.20;98001.03;10326679;28;826;-70
2023/12/05 03:13:59;;;;;;;;;;;;;;;16.66;42.30;98002.72;10326547;28;872;-70
2023/12/05 03:18:55;;;;;;;;;;;;;;;16.63;42.56;98005.56;10326394;28;700;-70
2023/12/05 03:23:51;;;;;;;;;;;;;;;16.62;42.36;97993.34;10326136;28;1965;-70
2023/12/05 03:28:47;;;;;;;;;;;;;;;16.64;42.54;98005.47;10326086;28;822;-70
2023/12/05 03:33:42;;;;;;;;;;;;;;;16.63;42.34;98000.28;10325269;28;1346;-70
2023/12/05 03:38:38;;;;;;;;;;;;;;;16.63;42.57;98002.91;10325630;28;944;-70
2023/12/05 03:43:34;;;;;;;;;;;;;;;16.62;42.66;98004.72;10325651;28;941;-71
2023/12/05 03:48:30;;;;;;;;;;;;;;;16.61;42.42;98002.16;10325475;28;1898;-71
2023/12/05 03:53:26;;;;;;;;;;;;;;;16.62;42.50;97998.63;10326068;28;880;-70
2023/12/05 03:58:22;;;;;;;;;;;;;;;16.64;42.61;97991.47;10325340;28;849;-70
2023/12/05 04:03:18;;;;;;;;;;;;;;;16.63;42.57;97995.03;10325298;28;889;-71
2023/12/05 04:08:14;;;;;;;;;;;;;;;16.63;42.34;97987.13;10325216;28;1878;-71
2023/12/05 04:13:10;;;;;;;;;;;;;;;16.63;42.64;97984.50;10325165;28;917;-71
2023/12/05 04:18:05;;;;;;;;;;;;;;;16.61;42.42;97989.03;10325632;28;996;-70
2023/12/05 04:23:01;;;;;;;;;;;;;;;16.61;42.60;97996.91;10324923;28;920;-71
2023/12/05 04:27:57;;;;;;;;;;;;;;;16.61;42.55;97995.16;10324183;28;2012;-71
2023/12/05 04:32:53;;;;;;;;;;;;;;;16.62;42.49;97995.97;10324595;28;1238;-71
2023/12/05 04:37:49;;;;;;;;;;;;;;;16.67;42.31;97993.91;10324101;28;933;-70
2023/12/05 04:42:45;;;;;;;;;;;;;;;16.68;42.81;97989.47;10325035;28;1180;-71
2023/12/05 04:47:41;;;;;;;;;;;;;;;16.70;42.59;97993.69;10326923;28;1891;-70
2023/12/05 04:52:36;;;;;;;;;;;;;;;16.73;42.27;97985.59;10332044;28;882;-70
2023/12/05 04:57:32;;;;;;;;;;;;;;;16.71;42.46;97991.88;10331823;28;822;-70
2023/12/05 05:02:28;;;;;;;;;;;;;;;16.71;42.50;97991.88;10331713;28;755;-71
2023/12/05 05:07:24;;;;;;;;;;;;;;;16.76;42.20;97993.25;10331596;28;1961;-70
2023/12/05 05:12:20;;;;;;;;;;;;;;;16.76;42.25;97997.69;10331889;28;800;-70
2023/12/05 05:17:16;;;;;;;;;;;;;;;16.82;42.18;97998.16;10331114;28;787;-70
2023/12/05 05:22:12;;;;;;;;;;;;;;;16.83;42.37;97999.84;10331476;28;917;-71
2023/12/05 05:27:07;;;;;;;;;;;;;;;16.81;42.23;97996.47;10330698;28;1928;-71
2023/12/05 05:32:03;;;;;;;;;;;;;;;16.85;42.16;97992.69;10330681;28;951;-71
2023/12/05 05:36:59;;;;;;;;;;;;;;;16.86;42.26;97994.38;10330867;28;1320;-71
2023/12/05 05:41:55;;;;;;;;;;;;;;;16.93;42.17;98007.13;10330212;28;917;-71
2023/12/05 05:46:51;;;;;;;;;;;;;;;16.96;42.14;98001.66;10330545;28;1979;-71
2023/12/05 05:51:47;;;;;;;;;;;;;;;16.97;42.00;98000.69;10330420;28;885;-71
2023/12/05 05:56:43;;;;;;;;;;;;;;;16.98;42.35;98012.94;10329695;28;785;-71
2023/12/05 06:01:39;;;;;;;;;;;;;;;16.94;42.22;98016.69;10328587;28;862;-71
2023/12/05 06:06:35;;;;;;;;;;;;;;;16.93;42.37;98017.66;10329867;28;1901;-71
2023/12/05 06:11:30;;;;;;;;;;;;;;;16.97;42.28;98019.13;10330319;28;908;-71
2023/12/05 06:16:26;;;;;;;;;;;;;;;17.01;42.23;98018.81;10329406;28;827;-73
2023/12/05 06:21:22;;;;;;;;;;;;;;;17.02;42.26;98020.50;10329277;28;967;-71
2023/12/05 06:26:19;;;;;;;;;;;;;;;17.02;42.41;98022.28;10328454;28;1963;-71
2023/12/05 06:31:15;;;;;;;;;;;;;;;17.03;42.40;98029.25;10329518;28;814;-74
2023/12/05 06:36:11;;;;;;;;;;;;;;;17.02;42.48;98031.03;10327976;28;1246;-71
2023/12/05 06:41:07;;;;;;;;;;;;;;;17.03;42.50;98037.16;10327767;28;977;-71
2023/12/05 06:46:03;;;;;;;;;;;;;;;17.01;42.38;98044.31;10327575;28;1944;-71
2023/12/05 06:50:59;;;;;;;;;;;;;;;16.96;42.44;98043.75;10327985;28;885;-71
2023/12/05 06:55:54;;;;;;;;;;;;;;;17.00;42.27;98053.13;10327260;28;893;-70
2023/12/05 07:00:50;;;;;;;;;;;;;;;16.99;42.61;98051.44;10327151;28;957;-70
2023/12/05 07:05:46;;;;;;;;;;;;;;;16.96;42.47;98064.81;10327390;28;1893;-71
2023/12/05 07:10:42;;;;;;;;;;;;;;;16.96;42.66;98062.19;10326586;28;917;-73
2023/12/05 07:15:38;;;;;;;;;;;;;;;16.94;43.04;98071.97;10325912;28;889;-74
2023/12/05 07:20:34;;;;;;;;;;;;;;;16.91;43.22;98074.81;10326902;28;853;-71
2023/12/05 07:25:30;;;;;;;;;;;;;;;16.86;43.20;98065.41;10325542;28;1918;-70
2023/12/05 07:30:26;;;;;;;;;;;;;;;16.82;43.25;98076.25;10326437;28;877;-70
2023/12/05 07:35:21;;;;;;;;;;;;;;;16.78;43.37;98086.13;10326392;28;1231;-70
2023/12/05 07:40:17;;;;;;;;;;;;;;;16.79;43.28;98087.84;10325297;28;1071;-72
2023/12/05 07:45:13;;;;;;;;;;;;;;;16.83;43.11;98084.03;10325652;28;1918;-70
2023/12/05 07:50:09;;;;;;;;;;;;;;;16.83;43.24;98091.94;10326428;28;818;-70
2023/12/05 07:55:07;;;;;;;;;;;;;;;16.85;43.19;98097.94;10325452;28;965;-70
2023/12/05 08:00:04;;;;;;;;;;;;;;;16.89;43.08;98108.28;10326615;28;875;-69
2023/12/05 08:05:00;;;;;;;;;;;;;;;16.92;42.91;98111.53;10324664;28;1925;-70
2023/12/05 08:09:56;;;;;;;;;;;;;;;16.96;42.91;98114.81;10325236;28;825;-74
2023/12/05 08:14:51;;;;;;;;;;;;;;;16.86;43.09;98120.69;10325123;28;880;-70
2023/12/05 08:19:47;;;;;;;;;;;;;;;16.84;42.85;98117.28;10325610;28;893;-71
2023/12/05 08:24:43;;;;;;;;;;;;;;;16.63;43.44;98132.66;10330712;28;1898;-71
2023/12/05 08:29:39;;;;;;;;;;;;;;;16.47;43.31;98129.31;10333087;28;976;-71
2023/12/05 08:34:35;;;;;;;;;;;;;;;16.46;43.23;98142.59;10332856;28;1705;-71
2023/12/05 08:39:31;;;;;;;;;;;;;;;16.40;43.18;98142.03;10332643;28;787;-70
2023/12/05 08:44:28;;;;;;;;;;;;;;;16.71;42.01;98147.94;10332349;28;1914;-70
2023/12/05 08:49:23;;;;;;;;;;;;;;;16.83;41.82;98152.47;10332672;28;901;-70
2023/12/05 08:54:19;;;;;;;;;;;;;;;16.85;41.95;98161.09;10332024;28;773;-70
2023/12/05 08:59:15;;;;;;;;;;;;;;;16.74;42.22;98163.56;10330346;28;1132;-70
2023/12/05 09:04:11;;;;;;;;;;;;;;;16.72;42.26;98160.19;10331469;28;1961;-69
2023/12/05 09:09:07;;;;;;;;;;;;;;;16.72;42.29;98175.97;10331089;28;865;-69
2023/12/05 09:14:05;;;;;;;;;;;;;;;16.64;42.32;98176.44;10330710;28;814;-70
2023/12/05 09:19:01;;;;;;;;;;;;;;;16.57;42.58;98171.66;10330874;28;869;-69
2023/12/05 09:23:57;;;;;;;;;;;;;;;16.64;42.46;98180.88;10330304;28;911;-69
2023/12/05 09:28:53;;;;;;;;;;;;;;;16.70;42.01;98180.47;10330561;28;1885;-70
2023/12/05 09:33:49;;;;;;;;;;;;;;;16.77;42.07;98186.19;10328447;28;1081;-70
2023/12/05 09:38:45;;;;;;;;;;;;;;;16.80;41.74;98181.59;10329453;28;1631;-70
2023/12/05 09:43:41;;;;;;;;;;;;;;;16.82;41.68;98182.34;10330095;28;996;-69
2023/12/05 09:48:37;;;;;;;;;;;;;;;16.86;41.79;98189.09;10330288;28;1918;-68
2023/12/05 09:53:33;;;;;;;;;;;;;;;16.84;41.67;98185.72;10329296;28;853;-70
2023/12/05 09:58:29;;;;;;;;;;;;;;;16.94;41.67;98191.25;10329991;28;879;-70
2023/12/05 10:03:25;;;;;;;;;;;;;;;16.96;41.66;98199.03;10328650;28;767;-70
2023/12/05 10:08:21;;;;;;;;;;;;;;;17.02;41.68;98203.91;10329819;28;1949;-70
2023/12/05 10:13:17;;;;;;;;;;;;;;;17.04;41.44;98207.28;10328206;28;930;-70
2023/12/05 10:18:13;;;;;;;;;;;;;;;17.06;41.53;98208.03;10328619;28;965;-70
2023/12/05 10:23:09;;;;;;;;;;;;;;;16.95;41.91;98205.22;10327920;28;865;-70
2023/12/05 10:28:08;;;;;;;;;;;;;;;17.01;41.77;98208.34;10328336;28;1965;-69
2023/12/05 10:33:04;;;;;;;;;;;;;;;17.05;41.88;98203.69;10327393;28;1101;-69
2023/12/05 10:38:00;;;;;;;;;;;;;;;17.09;41.64;98194.69;10329079;28;925;-69
2023/12/05 10:42:56;;;;;;;;;;;;;;;17.07;41.89;98204.44;10327037;28;993;-70
2023/12/05 10:47:52;;;;;;;;;;;;;;;17.08;41.58;98203.50;10327868;28;1918;-70
2023/12/05 10:52:48;;;;;;;;;;;;;;;17.07;41.67;98200.03;10326744;28;771;-70
2023/12/05 10:57:43;;;;;;;;;;;;;;;17.08;41.84;98206.13;10327061;28;821;-70
2023/12/05 11:02:40;;;;;;;;;;;;;;;17.09;41.81;98202.56;10326055;28;1210;-70
2023/12/05 11:07:36;;;;;;;;;;;;;;;17.14;41.78;98203.13;10326666;28;1969;-71
2023/12/05 11:12:32;;;;;;;;;;;;;;;17.14;41.74;98203.13;10325697;28;811;-70
2023/12/05 11:17:28;;;;;;;;;;;;;;;17.19;41.80;98208.94;10325798;28;973;-71
2023/12/05 11:22:24;;;;;;;;;;;;;;;17.15;41.90;98204.78;10325699;28;807;-72
2023/12/05 11:27:20;;;;;;;;;;;;;;;17.22;41.80;98210.53;10326163;28;1902;-70
2023/12/05 11:32:16;;;;;;;;;;;;;;;17.25;41.69;98205.88;10325512;28;1066;-71
2023/12/05 11:37:12;;;;;;;;;;;;;;;17.28;41.64;98210.09;10326048;28;1338;-70
2023/12/05 11:42:11;;;;;;;;;;;;;;;17.26;41.86;98206.72;10325593;28;845;-71
2023/12/05 11:47:07;;;;;;;;;;;;;;;17.29;41.70;98204.75;10326143;28;1895;-71
2023/12/05 11:52:02;;;;;;;;;;;;;;;17.31;41.82;98213.38;10325521;28;875;-71
2023/12/05 11:56:58;;;;;;;;;;;;;;;17.32;41.82;98216.88;10322488;28;1105;-70
2023/12/05 12:01:54;;;;;;;;;;;;;;;17.36;41.92;98220.13;10324917;28;874;-70
2023/12/05 12:06:50;;;;;;;;;;;;;;;17.34;42.02;98225.50;10324897;28;1902;-70
2023/12/05 12:11:47;;;;;;;;;;;;;;;17.28;42.02;98229.38;10324971;28;834;-70
2023/12/05 12:16:43;;;;;;;;;;;;;;;17.27;42.13;98240.88;10325255;28;845;-70
2023/12/05 12:21:39;;;;;;;;;;;;;;;17.25;42.18;98242.75;10324565;28;941;-70
2023/12/05 12:26:34;;;;;;;;;;;;;;;17.26;42.33;98240.97;10325008;28;1989;-71
2023/12/05 12:31:30;;;;;;;;;;;;;;;17.23;42.33;98242.00;10324380;28;893;-70
2023/12/05 12:36:26;;;;;;;;;;;;;;;17.24;42.52;98238.44;10323821;28;1311;-70
2023/12/05 12:41:22;;;;;;;;;;;;;;;17.28;42.25;98244.34;10324099;28;945;-70
2023/12/05 12:46:18;;;;;;;;;;;;;;;17.23;42.23;98239.38;10324648;28;1917;-70
2023/12/05 12:51:14;;;;;;;;;;;;;;;17.22;42.46;98236.84;10324028;28;871;-70
2023/12/05 12:56:10;;;;;;;;;;;;;;;17.18;42.51;98238.81;10324095;28;807;-70
2023/12/05 13:01:06;;;;;;;;;;;;;;;17.24;42.36;98248.97;10322249;28;1235;-70
2023/12/05 13:06:01;;;;;;;;;;;;;;;17.23;42.47;98247.25;10323859;28;1894;-70
2023/12/05 13:10:57;;;;;;;;;;;;;;;17.25;42.65;98252.44;10329297;28;1000;-70
2023/12/05 13:15:53;;;;;;;;;;;;;;;17.24;42.52;98248.97;10330824;28;819;-69
2023/12/05 13:20:51;;;;;;;;;;;;;;;17.28;42.52;98244.34;10331330;28;786;-70
2023/12/05 13:25:47;;;;;;;;;;;;;;;17.26;42.37;98249.69;10331183;28;1905;-69
2023/12/05 13:30:43;;;;;;;;;;;;;;;17.28;42.44;98247.81;10330971;28;892;-69
2023/12/05 13:35:39;;;;;;;;;;;;;;;17.27;42.39;98243.50;10330856;28;1109;-69
2023/12/05 13:40:36;;;;;;;;;;;;;;;17.25;42.66;98248.03;10330187;28;873;-69
2023/12/05 13:45:31;;;;;;;;;;;;;;;17.26;42.52;98249.69;10329843;28;1980;-70
2023/12/05 13:50:27;;;;;;;;;;;;;;;17.26;42.68;98252.31;10330152;28;843;-69
2023/12/05 13:55:23;;;;;;;;;;;;;;;17.27;42.48;98253.19;10329100;28;827;-70
2023/12/05 14:00:19;;;;;;;;;;;;;;;17.27;42.50;98259.31;10329233;28;838;-70
2023/12/05 14:05:15;;;;;;;;;;;;;;;17.24;42.55;98262.13;10329420;28;1897;-70
2023/12/05 14:10:11;;;;;;;;;;;;;;;17.26;42.59;98267.28;10327946;28;1140;-70
2023/12/05 14:15:07;;;;;;;;;;;;;;;17.22;42.61;98269.28;10327913;28;965;-70
2023/12/05 14:20:06;;;;;;;;;;;;;;;17.26;42.74;98275.19;10326779;28;815;-70
2023/12/05 14:25:02;;;;;;;;;;;;;;;17.24;42.96;98291.09;10328175;28;1961;-70
2023/12/05 14:29:58;;;;;;;;;;;;;;;17.26;42.80;98291.00;10327261;28;834;-70
2023/12/05 14:34:53;;;;;;;;;;;;;;;17.29;42.90;98291.66;10327568;28;1447;-70
2023/12/05 14:39:49;;;;;;;;;;;;;;;17.28;42.70;98291.75;10326674;28;881;-70
2023/12/05 14:44:45;;;;;;;;;;;;;;;17.29;42.86;98298.69;10327380;28;1910;-70
2023/12/05 14:49:41;;;;;;;;;;;;;;;17.27;42.87;98293.53;10327566;28;877;-70
2023/12/05 14:54:37;;;;;;;;;;;;;;;17.28;42.95;98303.13;10326953;28;893;-70
2023/12/05 14:59:33;;;;;;;;;;;;;;;17.27;42.78;98314.59;10326954;28;1240;-70
2023/12/05 15:04:29;;;;;;;;;;;;;;;17.30;42.66;98327.56;10326427;28;1897;-69
2023/12/05 15:09:25;;;;;;;;;;;;;;;17.30;42.88;98324.09;10326131;28;947;-70
2023/12/05 15:14:21;;;;;;;;;;;;;;;17.31;42.70;98331.03;10326516;28;869;-71
2023/12/05 15:19:17;;;;;;;;;;;;;;;17.29;42.78;98333.78;10326360;28;862;-70
2023/12/05 15:24:12;;;;;;;;;;;;;;;17.26;42.86;98333.97;10326821;28;791;-70
2023/12/05 15:29:08;;;;;;;;;;;;;;;17.23;43.06;98338.59;10325317;28;1890;-69
2023/12/05 15:34:04;;;;;;;;;;;;;;;17.19;43.29;98343.22;10324879;28;1095;-69
2023/12/05 15:39:00;;;;;;;;;;;;;;;17.15;43.24;98346.97;10326363;28;837;-70
2023/12/05 15:43:56;;;;;;;;;;;;;;;17.12;43.50;98362.13;10325809;28;893;-70
2023/12/05 15:48:52;;;;;;;;;;;;;;;17.07;43.37;98359.78;10325397;28;1897;-70
2023/12/05 15:53:48;;;;;;;;;;;;;;;17.04;43.36;98371.34;10325307;28;940;-70
2023/12/05 15:58:44;;;;;;;;;;;;;;;17.07;43.27;98375.56;10325237;28;770;-70
2023/12/05 16:03:39;;;;;;;;;;;;;;;17.07;43.33;98372.94;10325146;28;846;-70
2023/12/05 16:08:36;;;;;;;;;;;;;;;17.05;43.35;98386.19;10325617;28;1878;-70
2023/12/05 16:13:32;;;;;;;;;;;;;;;17.09;43.05;98382.44;10324844;28;981;-70
2023/12/05 16:18:28;;;;;;;;;;;;;;;17.12;43.35;98389.28;10324866;28;818;-73
2023/12/05 16:23:26;;;;;;;;;;;;;;;17.16;43.21;98401.34;10324759;28;850;-69
2023/12/05 16:28:22;;;;;;;;;;;;;;;17.19;43.00;98393.25;10324531;28;1894;-70
2023/12/05 16:33:17;;;;;;;;;;;;;;;17.20;43.07;98401.97;10324212;28;1282;-70
2023/12/05 16:38:13;;;;;;;;;;;;;;;17.21;42.97;98411.56;10324455;28;878;-70
2023/12/05 16:43:09;;;;;;;;;;;;;;;17.27;42.85;98413.84;10325820;28;951;-69
2023/12/05 16:48:05;;;;;;;;;;;;;;;17.22;43.04;98419.38;10332864;28;1918;-70
2023/12/05 16:53:01;;;;;;;;;;;;;;;17.28;42.85;98428.69;10332826;28;831;-70
2023/12/05 16:57:57;;;;;;;;;;;;;;;17.26;43.06;98434.03;10332160;28;964;-70
2023/12/05 17:02:53;;;;;;;;;;;;;;;17.27;43.10;98443.63;10331851;28;774;-70
2023/12/05 17:07:49;;;;;;;;;;;;;;;17.30;42.90;98453.13;10332240;28;1894;-69
2023/12/05 17:12:45;;;;;;;;;;;;;;;17.30;42.79;98461.03;10331449;28;782;-70
2023/12/05 17:17:41;;;;;;;;;;;;;;;17.26;42.93;98468.25;10331958;28;810;-70
2023/12/05 17:22:37;;;;;;;;;;;;;;;17.21;43.08;98473.00;10331765;28;810;-70
2023/12/05 17:27:33;;;;;;;;;;;;;;;17.15;43.29;98483.03;10330913;28;2266;-70
2023/12/05 17:32:29;;;;;;;;;;;;;;;17.11;43.38;98490.28;10330693;28;1017;-69
2023/12/05 17:37:30;;;;;;;;;;;;;;;17.11;43.21;98492.91;10331209;28;798;-70
2023/12/05 17:42:26;;;;;;;;;;;;;;;17.11;43.31;98502.59;10331375;28;904;-70
2023/12/05 17:47:22;;;;;;;;;;;;;;;17.13;43.25;98504.19;10330784;28;1971;-70
2023/12/05 17:52:18;;;;;;;;;;;;;;;17.13;43.24;98517.34;10330041;28;956;-71
2023/12/05 17:57:14;;;;;;;;;;;;;;;17.08;43.21;98522.03;10329526;28;766;-70
2023/12/05 18:02:10;;;;;;;;;;;;;;;17.13;42.96;98527.88;10330288;28;992;-70
2023/12/05 18:07:06;;;;;;;;;;;;;;;17.20;42.77;98539.75;10329887;28;1947;-70
2023/12/05 18:12:02;;;;;;;;;;;;;;;17.24;42.90;98546.53;10329311;28;925;-70
2023/12/05 18:16:57;;;;;;;;;;;;;;;17.27;42.73;98551.63;10329093;28;837;-69
2023/12/05 18:21:53;;;;;;;;;;;;;;;17.29;42.87;98562.03;10328884;28;905;-69
2023/12/05 18:26:49;;;;;;;;;;;;;;;17.31;42.94;98574.19;10328584;28;1894;-70
2023/12/05 18:31:45;;;;;;;;;;;;;;;17.33;42.59;98575.88;10328707;28;1043;-70
2023/12/05 18:36:41;;;;;;;;;;;;;;;17.35;42.63;98584.56;10328826;28;1259;-69
2023/12/05 18:41:37;;;;;;;;;;;;;;;17.37;42.67;98593.19;10328065;28;874;-70
2023/12/05 18:46:33;;;;;;;;;;;;;;;17.35;42.64;98589.81;10328709;28;1914;-70
2023/12/05 18:51:29;;;;;;;;;;;;;;;17.38;42.55;98603.66;10328212;28;822;-70
2023/12/05 18:56:24;;;;;;;;;;;;;;;17.39;42.72;98605.31;10326836;28;779;-70
2023/12/05 19:01:20;;;;;;;;;;;;;;;17.37;42.80;98612.50;10327839;28;914;-70
2023/12/05 19:06:16;;;;;;;;;;;;;;;17.41;42.71;98627.16;10327341;28;1898;-70
2023/12/05 19:11:12;;;;;;;;;;;;;;;17.45;42.62;98626.06;10326281;28;893;-70
2023/12/05 19:16:08;;;;;;;;;;;;;;;17.41;42.54;98637.69;10326733;28;806;-70
2023/12/05 19:21:04;;;;;;;;;;;;;;;17.45;42.52;98648.91;10326481;28;958;-69
2023/12/05 19:26:00;;;;;;;;;;;;;;;17.42;42.40;98646.44;10326321;28;1951;-70
2023/12/05 19:30:56;;;;;;;;;;;;;;;17.43;42.46;98648.16;10326248;28;869;-69
2023/12/05 19:35:52;;;;;;;;;;;;;;;17.44;42.68;98658.59;10325742;28;1381;-69
2023/12/05 19:40:48;;;;;;;;;;;;;;;17.45;42.41;98654.19;10325958;28;911;-70
2023/12/05 19:45:44;;;;;;;;;;;;;;;17.45;42.57;98670.00;10325760;28;1977;-70
2023/12/05 19:50:40;;;;;;;;;;;;;;;17.49;42.32;98671.50;10325695;28;1010;-70
2023/12/05 19:55:37;;;;;;;;;;;;;;;17.44;42.46;98676.19;10326336;28;878;-70
2023/12/05 20:00:33;;;;;;;;;;;;;;;17.48;42.47;98677.72;10326199;28;918;-70
2023/12/05 20:05:29;;;;;;;;;;;;;;;17.49;42.48;98692.56;10325269;28;1898;-70
2023/12/05 20:10:25;;;;;;;;;;;;;;;17.50;42.27;98689.84;10325884;28;855;-70
2023/12/05 20:15:21;;;;;;;;;;;;;;;17.49;42.40;98696.03;10325351;28;802;-70
2023/12/05 20:20:16;;;;;;;;;;;;;;;17.50;42.44;98705.66;10331063;28;885;-69
2023/12/05 20:25:12;;;;;;;;;;;;;;;17.49;42.53;98708.38;10333471;28;1913;-70
2023/12/05 20:30:08;;;;;;;;;;;;;;;17.50;42.32;98708.31;10333249;28;770;-70
2023/12/05 20:35:04;;;;;;;;;;;;;;;17.49;42.68;98717.13;10333536;28;1361;-70
2023/12/05 20:40:01;;;;;;;;;;;;;;;17.48;42.47;98712.81;10332182;28;868;-69
2023/12/05 20:44:57;;;;;;;;;;;;;;;17.45;42.64;98714.78;10333128;28;1918;-69
2023/12/05 20:49:53;;;;;;;;;;;;;;;17.44;42.50;98720.97;10332456;28;876;-70
2023/12/05 20:54:48;;;;;;;;;;;;;;;17.42;42.50;98728.09;10332900;28;839;-70
2023/12/05 20:59:45;;;;;;;;;;;;;;;17.40;42.75;98724.72;10332823;28;802;-70
2023/12/05 21:04:41;;;;;;;;;;;;;;;17.43;42.53;98735.09;10332434;28;1906;-69
2023/12/05 21:09:36;;;;;;;;;;;;;;;17.40;42.40;98725.56;10331834;28;936;-69
2023/12/05 21:14:32;;;;;;;;;;;;;;;17.40;42.53;98732.63;10331517;28;893;-70
2023/12/05 21:19:28;;;;;;;;;;;;;;;17.39;42.76;98738.81;10331327;28;941;-70
2023/12/05 21:24:24;;;;;;;;;;;;;;;17.39;42.46;98737.03;10331124;28;853;-69
2023/12/05 21:29:21;;;;;;;;;;;;;;;17.38;42.46;98745.88;10331595;28;1906;-70
2023/12/05 21:34:16;;;;;;;;;;;;;;;17.35;42.54;98747.84;10331247;28;1133;-69
2023/12/05 21:39:12;;;;;;;;;;;;;;;17.31;42.52;98752.44;10330609;28;984;-69
2023/12/05 21:44:09;;;;;;;;;;;;;;;17.30;42.70;98770.03;10330383;28;1111;-70
2023/12/05 21:49:05;;;;;;;;;;;;;;;17.26;42.85;98759.75;10329627;28;1914;-69
2023/12/05 21:54:02;;;;;;;;;;;;;;;17.23;42.68;98765.19;10330067;28;781;-70
2023/12/05 21:58:58;;;;;;;;;;;;;;;17.21;42.64;98774.94;10329826;28;875;-69
2023/12/05 22:03:54;;;;;;;;;;;;;;;17.19;42.87;98780.31;10329823;28;806;-69
2023/12/05 22:08:50;;;;;;;;;;;;;;;17.19;42.85;98780.31;10330055;28;1894;-69
2023/12/05 22:13:46;;;;;;;;;;;;;;;17.16;42.80;98784.91;10329296;28;857;-69
2023/12/05 22:18:44;;;;;;;;;;;;;;;17.15;42.79;98789.31;10329125;28;867;-69
2023/12/05 22:23:40;;;;;;;;;;;;;;;17.16;43.00;98798.94;10328843;28;825;-69
2023/12/05 22:28:35;;;;;;;;;;;;;;;17.16;42.89;98804.19;10329271;28;1902;-69
2023/12/05 22:33:31;;;;;;;;;;;;;;;17.12;42.88;98807.09;10328087;28;1249;-69
2023/12/05 22:38:27;;;;;;;;;;;;;;;17.13;42.87;98828.03;10329345;28;978;-69
2023/12/05 22:43:23;;;;;;;;;;;;;;;17.13;42.72;98828.03;10328118;28;834;-69
2023/12/05 22:48:19;;;;;;;;;;;;;;;17.13;42.72;98830.69;10327762;28;1965;-69
2023/12/05 22:53:15;;;;;;;;;;;;;;;17.13;42.77;98840.38;10327730;28;842;-69
2023/12/05 22:58:11;;;;;;;;;;;;;;;17.13;42.76;98833.31;10326889;28;857;-69
2023/12/05 23:03:06;;;;;;;;;;;;;;;17.10;42.79;98854.56;10327940;28;782;-69
2023/12/05 23:08:02;;;;;;;;;;;;;;;17.11;42.77;98851.00;10327026;28;1894;-69
2023/12/05 23:12:58;;;;;;;;;;;;;;;17.12;42.83;98860.59;10327577;28;816;-69
2023/12/05 23:17:54;;;;;;;;;;;;;;;17.11;43.08;98858.91;10326656;28;882;-69
2023/12/05 23:22:50;;;;;;;;;;;;;;;17.09;42.89;98851.06;10326557;28;770;-69
2023/12/05 23:27:46;;;;;;;;;;;;;;;17.09;42.90;98853.69;10326307;28;1957;-69
2023/12/05 23:32:43;;;;;;;;;;;;;;;17.08;42.99;98857.28;10326177;28;1149;-69
2023/12/05 23:37:39;;;;;;;;;;;;;;;17.06;43.08;98853.03;10327034;28;846;-69
2023/12/05 23:42:35;;;;;;;;;;;;;;;17.05;42.98;98854.78;10325909;28;910;-70
2023/12/05 23:47:31;;;;;;;;;;;;;;;17.07;42.79;98854.72;10325136;28;1909;-69
2023/12/05 23:52:27;;;;;;;;;;;;;;;17.06;42.87;98863.56;10325469;28;887;-69
2023/12/05 23:57:23;;;;;;;;;;;;;;;17.04;42.92;98866.28;10326240;28;846;-69
